Time;durP1;ratioP1;P1;durP2;ratioP2;P2;SDS_P1;SDS_P2;PMS_P1;PMS_P2;Temp;Humidity;BMP_temperature;BMP_pressure;BME280_temperature;BME280_humidity;BME280_pressure;Samples;Min_cycle;Max_cycle;Signal;HPM_P1;HPM_P2
2023/03/02 00:00:00;;;;;;;62.65;40.92;;;5.30;99.90;;;;;;4932594;29;20094;-74
2023/03/02 00:02:27;;;;;;;70.03;44.30;;;5.30;99.90;;;;;;4938330;29;20036;-71
2023/03/02 00:04:57;;;;;;;77.40;45.13;;;5.40;99.90;;;;;;4938158;29;20028;-73
2023/03/02 00:07:32;;;;;;;84.80;51.38;;;5.40;99.90;;;;;;4938002;29;20051;-74
2023/03/02 00:09:58;;;;;;;73.30;45.75;;;5.40;99.90;;;;;;4938066;29;20067;-74
2023/03/02 00:12:26;;;;;;;76.05;43.55;;;5.40;99.90;;;;;;4938294;29;20062;-74
2023/03/02 00:14:52;;;;;;;78.13;49.45;;;5.50;99.90;;;;;;4938012;29;20062;-73
2023/03/02 00:17:26;;;;;;;111.13;65.57;;;5.50;99.90;;;;;;4937674;29;20071;-75
2023/03/02 00:20:10;;;;;;;84.07;50.38;;;5.50;99.90;;;;;;4937852;29;20036;-74
2023/03/02 00:22:45;;;;;;;77.32;46.20;;;5.50;99.90;;;;;;4937830;29;20039;-75
2023/03/02 00:25:13;;;;;;;81.95;49.13;;;5.60;99.90;;;;;;4937913;29;20042;-73
2023/03/02 00:27:39;;;;;;;85.38;49.13;;;5.50;99.90;;;;;;4937723;29;20019;-75
2023/03/02 00:30:07;;;;;;;81.50;47.22;;;5.60;99.90;;;;;;4937768;29;20032;-72
2023/03/02 00:32:33;;;;;;;83.82;47.70;;;5.60;99.90;;;;;;4937746;29;20106;-73
2023/03/02 00:34:59;;;;;;;79.70;48.75;;;5.70;99.90;;;;;;4937553;29;20091;-72
2023/03/02 00:37:25;;;;;;;86.25;49.90;;;5.70;99.90;;;;;;4942528;29;20051;-71
2023/03/02 00:39:52;;;;;;;81.53;50.05;;;5.60;99.90;;;;;;4937862;29;20110;-73
2023/03/02 00:42:19;;;;;;;111.13;66.68;;;5.70;99.90;;;;;;4920555;29;20038;-72
2023/03/02 00:44:45;;;;;;;110.63;63.28;;;5.70;99.90;;;;;;4936247;29;20026;-74
2023/03/02 00:47:10;;;;;;;101.88;59.83;;;5.70;99.90;;;;;;4937255;29;20039;-74
2023/03/02 00:49:36;;;;;;;113.53;62.53;;;5.80;99.90;;;;;;4920487;29;20023;-74
2023/03/02 00:52:03;;;;;;;87.78;56.05;;;5.80;99.90;;;;;;4920308;29;20028;-73
2023/03/02 00:54:29;;;;;;;90.13;54.25;;;5.80;99.90;;;;;;4937656;29;20127;-73
2023/03/02 00:56:55;;;;;;;112.75;66.55;;;5.80;99.90;;;;;;4937255;29;20479;-73
2023/03/02 00:59:27;;;;;;;133.45;74.88;;;5.80;99.90;;;;;;4936076;29;20034;-75
2023/03/02 01:02:20;;;;;;;119.20;63.70;;;5.70;99.90;;;;;;4935879;29;20389;-74
2023/03/02 01:04:47;;;;;;;126.55;70.47;;;5.70;99.90;;;;;;4935830;29;20087;-73
2023/03/02 01:07:16;;;;;;;111.65;62.75;;;5.70;99.90;;;;;;4936863;29;20047;-74
2023/03/02 01:09:43;;;;;;;113.40;70.78;;;5.80;99.90;;;;;;4935847;29;20059;-73
2023/03/02 01:12:10;;;;;;;100.60;61.72;;;5.80;99.90;;;;;;4936944;29;20038;-74
2023/03/02 01:14:37;;;;;;;95.45;58.28;;;5.80;99.90;;;;;;4936950;29;20068;-74
2023/03/02 01:17:05;;;;;;;128.65;77.40;;;5.80;99.90;;;;;;4919337;29;20505;-73
2023/03/02 01:19:31;;;;;;;132.85;75.35;;;5.80;99.90;;;;;;4919300;29;20040;-74
2023/03/02 01:21:57;;;;;;;148.85;83.78;;;5.80;99.90;;;;;;4935825;29;20082;-73
2023/03/02 01:24:23;;;;;;;145.65;77.85;;;5.90;99.90;;;;;;4919776;29;20374;-74
2023/03/02 01:26:48;;;;;;;106.22;63.15;;;5.90;99.90;;;;;;4937034;29;20038;-74
2023/03/02 01:29:14;;;;;;;97.53;58.15;;;5.90;99.90;;;;;;4935431;29;20035;-73
2023/03/02 01:31:40;;;;;;;113.35;64.78;;;5.90;99.90;;;;;;4934602;29;20059;-74
2023/03/02 01:34:06;;;;;;;105.65;61.70;;;5.90;99.90;;;;;;4936364;29;20076;-73
2023/03/02 01:36:32;;;;;;;97.30;60.40;;;5.90;99.90;;;;;;4936586;29;20020;-74
2023/03/02 01:38:58;;;;;;;92.43;57.40;;;5.90;99.90;;;;;;4936051;29;20074;-74
2023/03/02 01:41:24;;;;;;;89.65;52.42;;;5.90;99.90;;;;;;4919165;29;20028;-74
2023/03/02 01:43:50;;;;;;;69.40;44.03;;;5.90;99.90;;;;;;4918883;29;20019;-73
2023/03/02 01:46:21;;;;;;;56.83;33.53;;;5.80;99.90;;;;;;4936295;29;20385;-73
2023/03/02 01:49:01;;;;;;;47.33;30.50;;;5.80;99.90;;;;;;4935014;29;20028;-74
2023/03/02 01:51:47;;;;;;;53.00;30.88;;;5.70;99.90;;;;;;4929857;29;20050;-74
2023/03/02 01:54:21;;;;;;;48.97;29.77;;;5.60;99.90;;;;;;4934803;29;20422;-73
2023/03/02 01:56:54;;;;;;;44.60;26.50;;;5.60;99.90;;;;;;4919058;29;20508;-73
2023/03/02 01:59:22;;;;;;;41.42;23.52;;;5.50;99.90;;;;;;4939384;29;20505;-73
2023/03/02 02:01:54;;;;;;;36.28;22.60;;;5.60;99.90;;;;;;4936123;29;20020;-72
2023/03/02 02:04:21;;;;;;;37.38;20.65;;;5.60;99.90;;;;;;4936367;29;20042;-73
2023/03/02 02:06:54;;;;;;;35.38;20.30;;;5.60;99.90;;;;;;4918689;28;20123;-73
2023/03/02 02:09:22;;;;;;;33.15;19.67;;;5.50;99.90;;;;;;4936207;29;20039;-75
2023/03/02 02:11:48;;;;;;;35.45;18.60;;;5.50;99.90;;;;;;4935989;29;20028;-75
2023/03/02 02:14:14;;;;;;;29.00;17.25;;;5.60;99.90;;;;;;4935876;29;20027;-74
2023/03/02 02:16:40;;;;;;;26.65;15.43;;;5.50;99.90;;;;;;4935671;29;20371;-74
2023/03/02 02:19:30;;;;;;;27.90;16.92;;;5.50;99.90;;;;;;4918965;29;20103;-74
2023/03/02 02:21:56;;;;;;;27.38;15.88;;;5.60;99.90;;;;;;4935944;29;20067;-75
2023/03/02 02:24:37;;;;;;;36.95;19.35;;;5.50;99.90;;;;;;4917964;29;20074;-75
2023/03/02 02:27:04;;;;;;;26.80;15.95;;;5.50;99.90;;;;;;4918875;29;20039;-74
2023/03/02 02:29:33;;;;;;;24.48;14.98;;;5.50;99.90;;;;;;4935680;29;20390;-74
2023/03/02 02:32:01;;;;;;;20.33;11.50;;;5.60;99.90;;;;;;4918791;29;20507;-74
2023/03/02 02:35:16;;;;;;;23.17;12.40;;;5.60;99.90;;;;;;4918722;29;20024;-74
2023/03/02 02:37:51;;;;;;;20.45;11.80;;;5.60;99.90;;;;;;4855790;29;20041;-74
2023/03/02 02:40:38;;;;;;;21.42;10.73;;;5.60;99.90;;;;;;4843192;29;20034;-74
2023/03/02 02:43:06;;;;;;;21.67;10.57;;;5.70;99.90;;;;;;4843344;29;20141;-74
2023/03/02 02:45:34;;;;;;;20.60;10.20;;;5.70;99.90;;;;;;4858136;29;20156;-74
2023/03/02 02:48:00;;;;;;;19.75;10.60;;;5.70;99.90;;;;;;4843155;29;20060;-75
2023/03/02 02:50:32;;;;;;;20.67;9.63;;;5.70;99.90;;;;;;4858615;29;20404;-75
2023/03/02 02:53:18;;;;;;;22.05;10.60;;;5.80;99.90;;;;;;4858696;29;20041;-76
2023/03/02 02:55:47;;;;;;;19.33;10.80;;;5.70;99.90;;;;;;4842589;29;20037;-75
2023/03/02 02:58:32;;;;;;;19.38;10.38;;;5.70;99.90;;;;;;4848118;29;20038;-74
2023/03/02 03:00:59;;;;;;;19.65;10.38;;;5.70;99.90;;;;;;4855668;29;20041;-73
2023/03/02 03:03:29;;;;;;;20.85;11.07;;;5.80;99.90;;;;;;4852842;29;20065;-75
2023/03/02 03:05:59;;;;;;;18.20;9.13;;;5.80;99.90;;;;;;4842366;29;20124;-75
2023/03/02 03:08:43;;;;;;;16.85;8.15;;;5.80;99.90;;;;;;4858034;29;20579;-74
2023/03/02 03:11:15;;;;;;;15.00;7.40;;;5.80;99.90;;;;;;4841331;29;20037;-75
2023/03/02 03:13:42;;;;;;;15.90;7.72;;;5.80;99.90;;;;;;4876847;29;20036;-73
2023/03/02 03:16:13;;;;;;;15.57;8.63;;;5.80;99.90;;;;;;4934125;29;20031;-74
2023/03/02 03:18:42;;;;;;;14.00;8.32;;;5.90;99.90;;;;;;4918324;29;20048;-73
2023/03/02 03:21:08;;;;;;;15.07;7.75;;;5.90;99.90;;;;;;4933987;29;20024;-74
2023/03/02 03:23:37;;;;;;;14.07;6.88;;;5.80;99.90;;;;;;4918091;29;20035;-74
2023/03/02 03:26:04;;;;;;;17.23;7.43;;;5.80;99.90;;;;;;4930061;29;20024;-76
2023/03/02 03:28:31;;;;;;;14.60;7.03;;;5.90;99.90;;;;;;4916607;29;20032;-72
2023/03/02 03:30:57;;;;;;;13.60;8.23;;;5.90;99.90;;;;;;4933664;29;20052;-75
2023/03/02 03:33:24;;;;;;;16.42;9.05;;;5.90;99.90;;;;;;4917671;29;20039;-72
2023/03/02 03:35:49;;;;;;;14.85;9.05;;;5.90;99.90;;;;;;4921194;29;20052;-73
2023/03/02 03:38:17;;;;;;;15.48;8.23;;;5.90;99.90;;;;;;4933823;29;20489;-73
2023/03/02 03:40:45;;;;;;;16.05;9.00;;;5.90;99.90;;;;;;4935638;29;20031;-75
2023/03/02 03:43:13;;;;;;;16.73;9.20;;;5.90;99.90;;;;;;4921636;29;20127;-73
2023/03/02 03:45:42;;;;;;;18.58;9.52;;;5.90;99.90;;;;;;4921164;29;20032;-74
2023/03/02 03:48:08;;;;;;;18.23;9.32;;;5.90;99.90;;;;;;4938806;29;20042;-74
2023/03/02 03:50:34;;;;;;;13.82;8.48;;;5.90;99.90;;;;;;4938567;29;20020;-74
2023/03/02 03:53:00;;;;;;;16.88;8.45;;;5.90;99.90;;;;;;4938521;29;20035;-74
2023/03/02 03:55:27;;;;;;;16.10;9.57;;;5.90;99.90;;;;;;4921356;29;20024;-75
2023/03/02 03:57:54;;;;;;;14.10;7.68;;;5.90;99.90;;;;;;4937279;29;20051;-74
2023/03/02 04:00:21;;;;;;;15.07;7.53;;;5.90;99.90;;;;;;4938195;29;20031;-73
2023/03/02 04:02:56;;;;;;;15.18;7.57;;;6.00;99.90;;;;;;4936898;29;20047;-72
2023/03/02 04:05:23;;;;;;;13.07;7.20;;;6.00;99.90;;;;;;4924423;29;20028;-74
2023/03/02 04:07:52;;;;;;;13.00;7.13;;;6.00;99.90;;;;;;4921040;29;20039;-73
2023/03/02 04:10:18;;;;;;;17.70;8.93;;;6.00;99.90;;;;;;4921158;29;20028;-74
2023/03/02 04:12:45;;;;;;;13.52;7.43;;;6.00;99.90;;;;;;4936914;29;20520;-74
2023/03/02 04:15:14;;;;;;;15.18;8.02;;;6.10;99.90;;;;;;4936632;29;20023;-72
2023/03/02 04:17:43;;;;;;;14.50;7.90;;;6.20;99.90;;;;;;4920807;29;20031;-75
2023/03/02 04:20:15;;;;;;;14.07;7.72;;;6.20;99.90;;;;;;4937932;29;20027;-75
2023/03/02 04:22:44;;;;;;;17.38;8.40;;;6.20;99.90;;;;;;4920947;29;20035;-74
2023/03/02 04:25:12;;;;;;;19.08;8.82;;;6.30;99.90;;;;;;4920884;29;20038;-74
2023/03/02 04:27:39;;;;;;;15.98;8.40;;;6.30;99.90;;;;;;4920717;29;20107;-75
2023/03/02 04:30:06;;;;;;;27.83;16.83;;;6.40;99.90;;;;;;4920792;29;20083;-73
2023/03/02 04:32:32;;;;;;;41.13;23.92;;;6.40;99.90;;;;;;4937693;29;20525;-73
2023/03/02 04:34:58;;;;;;;38.22;23.45;;;6.20;99.90;;;;;;4920806;29;20043;-74
2023/03/02 04:37:26;;;;;;;38.47;24.95;;;6.20;99.90;;;;;;4920467;29;20462;-74
2023/03/02 04:39:52;;;;;;;42.80;27.55;;;6.20;99.90;;;;;;4920685;29;20038;-73
2023/03/02 04:42:19;;;;;;;42.65;26.05;;;6.20;99.90;;;;;;4937736;29;20106;-73
2023/03/02 04:44:46;;;;;;;44.08;28.00;;;6.10;99.90;;;;;;4937652;29;20394;-73
2023/03/02 04:47:12;;;;;;;51.35;31.15;;;6.10;99.90;;;;;;4937368;29;20028;-73
2023/03/02 04:49:38;;;;;;;54.33;30.92;;;6.00;99.90;;;;;;4937621;29;20071;-74
2023/03/02 04:52:04;;;;;;;52.40;33.03;;;5.90;99.90;;;;;;4936841;29;20047;-73
2023/03/02 04:54:30;;;;;;;54.70;35.95;;;5.90;99.90;;;;;;4937264;29;20035;-74
2023/03/02 04:56:56;;;;;;;56.72;39.15;;;5.80;99.90;;;;;;4937292;29;20101;-73
2023/03/02 04:59:25;;;;;;;62.90;38.17;;;5.80;99.90;;;;;;4937362;29;20548;-74
2023/03/02 05:01:53;;;;;;;64.63;42.58;;;5.80;99.90;;;;;;4936899;29;20457;-74
2023/03/02 05:04:19;;;;;;;63.63;40.17;;;5.70;99.90;;;;;;4937063;29;20015;-74
2023/03/02 05:06:46;;;;;;;64.03;41.53;;;5.70;99.90;;;;;;4936733;29;20559;-75
2023/03/02 05:09:11;;;;;;;60.97;39.10;;;5.70;99.90;;;;;;4937100;29;20528;-75
2023/03/02 05:11:38;;;;;;;59.35;39.70;;;5.60;99.90;;;;;;4937211;29;20028;-75
2023/03/02 05:14:06;;;;;;;59.80;36.30;;;5.60;99.90;;;;;;4937104;29;20047;-73
2023/03/02 05:16:34;;;;;;;62.60;39.50;;;5.60;99.90;;;;;;4936524;29;20055;-76
2023/03/02 05:19:01;;;;;;;67.20;41.28;;;5.60;99.90;;;;;;4936884;29;20032;-76
2023/03/02 05:21:27;;;;;;;59.78;40.00;;;5.60;99.90;;;;;;4936947;29;20024;-75
2023/03/02 05:23:53;;;;;;;65.75;41.38;;;5.60;99.90;;;;;;4936997;29;20059;-75
2023/03/02 05:26:22;;;;;;;62.90;42.38;;;5.70;99.90;;;;;;4936711;29;20063;-75
2023/03/02 05:28:48;;;;;;;78.97;46.33;;;5.70;99.90;;;;;;4936452;29;20083;-77
2023/03/02 05:31:19;;;;;;;70.85;42.67;;;5.70;99.90;;;;;;4933407;29;20031;-77
2023/03/02 05:33:46;;;;;;;62.25;39.10;;;5.70;99.90;;;;;;4936733;29;20061;-74
2023/03/02 05:36:11;;;;;;;58.25;38.03;;;5.70;99.90;;;;;;4936557;29;20020;-76
2023/03/02 05:38:38;;;;;;;62.00;37.47;;;5.70;99.90;;;;;;4936779;29;20039;-75
2023/03/02 05:41:04;;;;;;;72.35;43.20;;;5.80;99.90;;;;;;4936590;29;20111;-77
2023/03/02 05:43:29;;;;;;;64.95;38.63;;;5.80;99.90;;;;;;4936583;29;20039;-77
2023/03/02 05:45:59;;;;;;;56.80;36.55;;;5.80;99.90;;;;;;4936444;29;20425;-77
2023/03/02 05:48:29;;;;;;;62.15;38.30;;;5.90;99.90;;;;;;4936690;29;20055;-75
2023/03/02 05:50:55;;;;;;;54.90;36.58;;;5.90;99.90;;;;;;4936616;29;20032;-78
2023/03/02 05:53:21;;;;;;;60.72;38.03;;;5.90;99.90;;;;;;4936274;29;20347;-77
2023/03/02 05:55:47;;;;;;;63.28;41.13;;;5.90;99.90;;;;;;4936654;29;20036;-78
2023/03/02 05:58:16;;;;;;;59.13;37.63;;;5.90;99.90;;;;;;4936152;29;20039;-78
2023/03/02 06:00:42;;;;;;;60.97;39.80;;;5.90;99.90;;;;;;4936057;29;20106;-77
2023/03/02 06:03:08;;;;;;;78.50;51.28;;;5.90;99.90;;;;;;4936442;29;20032;-77
2023/03/02 06:05:35;;;;;;;71.05;48.20;;;5.90;99.90;;;;;;4935982;28;20494;-78
2023/03/02 06:08:01;;;;;;;74.53;46.45;;;5.80;99.90;;;;;;4935958;29;20031;-78
2023/03/02 06:10:27;;;;;;;71.13;42.55;;;5.70;99.90;;;;;;4936273;29;20087;-77
2023/03/02 06:12:53;;;;;;;70.68;42.42;;;5.80;99.90;;;;;;4935986;29;20028;-76
2023/03/02 06:15:19;;;;;;;67.35;41.00;;;5.80;99.90;;;;;;4935879;29;20031;-73
2023/03/02 06:17:45;;;;;;;66.75;42.45;;;5.90;99.90;;;;;;4936291;29;20039;-77
2023/03/02 06:20:12;;;;;;;62.92;41.95;;;5.90;99.90;;;;;;4935983;29;20470;-76
2023/03/02 06:22:40;;;;;;;71.18;43.50;;;6.00;99.90;;;;;;4935929;29;20039;-76
2023/03/02 06:25:10;;;;;;;74.10;47.38;;;6.10;99.90;;;;;;4936267;29;20087;-77
2023/03/02 06:27:38;;;;;;;81.47;52.38;;;6.10;99.90;;;;;;4935926;29;20032;-77
2023/03/02 06:30:05;;;;;;;79.70;52.53;;;6.20;99.90;;;;;;4935787;29;20023;-78
2023/03/02 06:32:33;;;;;;;77.30;53.00;;;6.20;99.90;;;;;;4935637;29;20043;-78
2023/03/02 06:35:03;;;;;;;80.90;51.25;;;6.10;99.90;;;;;;4935962;29;20535;-77
2023/03/02 06:37:30;;;;;;;95.68;63.33;;;6.10;99.90;;;;;;4935699;29;20478;-77
2023/03/02 06:39:57;;;;;;;109.93;69.63;;;6.00;99.90;;;;;;4936377;29;20051;-78
2023/03/02 06:42:23;;;;;;;106.28;70.68;;;6.00;99.90;;;;;;4935697;29;20039;-77
2023/03/02 06:44:50;;;;;;;116.38;79.38;;;5.90;99.90;;;;;;4935685;29;20028;-78
2023/03/02 06:47:17;;;;;;;153.63;91.93;;;5.90;99.90;;;;;;4935581;29;20059;-73
2023/03/02 06:49:43;;;;;;;126.60;79.93;;;5.80;99.90;;;;;;4935643;29;20473;-78
2023/03/02 06:52:09;;;;;;;94.38;62.47;;;5.80;99.90;;;;;;4935731;29;20027;-76
2023/03/02 06:54:36;;;;;;;98.32;60.30;;;5.70;99.90;;;;;;4935780;29;20024;-78
2023/03/02 06:57:02;;;;;;;84.63;52.70;;;5.70;99.90;;;;;;4935527;29;20083;-74
2023/03/02 06:59:28;;;;;;;80.53;47.33;;;5.60;99.90;;;;;;4935513;29;20084;-78
2023/03/02 07:01:54;;;;;;;84.15;51.05;;;5.60;99.90;;;;;;4935513;29;20445;-77
2023/03/02 07:04:19;;;;;;;81.90;51.83;;;5.60;99.90;;;;;;4948352;29;20095;-77
2023/03/02 07:06:46;;;;;;;77.38;48.35;;;5.70;99.90;;;;;;4918392;29;20066;-78
2023/03/02 07:09:12;;;;;;;80.65;48.78;;;5.70;99.90;;;;;;4935024;29;20031;-76
2023/03/02 07:11:39;;;;;;;81.65;53.53;;;5.70;99.90;;;;;;4935605;29;20397;-78
2023/03/02 07:14:05;;;;;;;80.82;51.47;;;5.80;99.90;;;;;;4935368;29;20038;-77
2023/03/02 07:16:32;;;;;;;77.20;49.30;;;5.80;99.90;;;;;;4920212;29;20461;-78
2023/03/02 07:18:58;;;;;;;78.88;48.28;;;5.80;99.90;;;;;;4939131;29;20044;-78
2023/03/02 07:21:24;;;;;;;87.70;52.08;;;5.90;99.90;;;;;;4939222;29;20446;-77
2023/03/02 07:23:50;;;;;;;77.70;48.90;;;5.90;99.90;;;;;;4939089;29;20035;-76
2023/03/02 07:26:16;;;;;;;77.35;51.00;;;5.90;99.90;;;;;;4938740;29;20032;-78
2023/03/02 07:28:43;;;;;;;89.85;60.38;;;6.00;99.90;;;;;;4939107;29;20024;-78
2023/03/02 07:31:10;;;;;;;89.70;58.22;;;5.90;99.90;;;;;;4938924;29;20030;-77
2023/03/02 07:33:37;;;;;;;89.72;54.45;;;6.00;99.90;;;;;;4938862;29;20027;-73
2023/03/02 07:36:04;;;;;;;86.68;57.47;;;6.10;99.90;;;;;;4939132;29;20099;-77
2023/03/02 07:38:30;;;;;;;86.32;56.83;;;6.00;99.90;;;;;;4938781;29;20032;-77
2023/03/02 07:40:55;;;;;;;86.45;55.60;;;6.00;99.90;;;;;;4938919;29;20535;-78
2023/03/02 07:43:24;;;;;;;87.30;56.40;;;5.90;99.90;;;;;;4938760;29;20028;-76
2023/03/02 07:45:50;;;;;;;104.78;64.20;;;5.90;99.90;;;;;;4938277;29;20028;-78
2023/03/02 07:48:16;;;;;;;101.47;65.78;;;6.00;99.90;;;;;;4938875;29;20036;-76
2023/03/02 07:50:42;;;;;;;100.03;63.60;;;6.00;99.90;;;;;;4938624;29;20024;-78
2023/03/02 07:53:07;;;;;;;98.72;64.43;;;6.10;99.90;;;;;;4938717;29;20030;-77
2023/03/02 07:55:33;;;;;;;102.60;68.75;;;6.20;99.90;;;;;;4938580;29;20031;-78
2023/03/02 07:57:59;;;;;;;109.05;73.68;;;6.20;99.90;;;;;;4938376;29;20031;-78
2023/03/02 08:00:25;;;;;;;113.05;72.85;;;6.30;99.90;;;;;;4938858;29;20023;-78
2023/03/02 08:02:51;;;;;;;109.68;68.35;;;6.30;99.90;;;;;;4938574;29;20545;-77
2023/03/02 08:05:17;;;;;;;104.05;65.80;;;6.40;99.90;;;;;;4938142;29;20024;-78
2023/03/02 08:07:44;;;;;;;101.90;68.78;;;6.40;99.90;;;;;;4938548;29;20084;-78
2023/03/02 08:10:11;;;;;;;106.10;69.93;;;6.50;99.90;;;;;;4938264;29;20028;-77
2023/03/02 08:12:36;;;;;;;111.18;68.18;;;6.50;99.90;;;;;;4938323;29;20023;-77
2023/03/02 08:15:02;;;;;;;111.25;70.20;;;6.50;99.90;;;;;;4938072;29;20485;-77
2023/03/02 08:17:28;;;;;;;104.13;69.18;;;6.50;99.90;;;;;;4938304;29;20039;-78
2023/03/02 08:19:54;;;;;;;99.07;67.22;;;6.60;99.90;;;;;;4938257;29;20038;-77
2023/03/02 08:22:20;;;;;;;102.47;64.78;;;6.70;99.90;;;;;;4938116;29;20083;-77
2023/03/02 08:24:46;;;;;;;126.68;80.07;;;6.60;99.90;;;;;;4937845;29;20024;-77
2023/03/02 08:27:14;;;;;;;124.85;82.30;;;6.60;99.90;;;;;;4938036;29;20470;-77
2023/03/02 08:29:40;;;;;;;116.35;73.90;;;6.70;99.90;;;;;;4938223;29;20038;-78
2023/03/02 08:32:06;;;;;;;116.63;72.38;;;6.70;99.90;;;;;;4937922;29;20031;-78
2023/03/02 08:34:32;;;;;;;113.72;71.50;;;6.80;99.90;;;;;;4937796;29;20035;-78
2023/03/02 08:36:57;;;;;;;118.55;77.00;;;6.90;99.90;;;;;;4937872;29;20031;-78
2023/03/02 08:39:23;;;;;;;107.70;73.18;;;6.90;99.90;;;;;;4937782;29;20040;-76
2023/03/02 08:41:52;;;;;;;114.57;69.38;;;6.90;99.90;;;;;;4937773;29;20028;-78
2023/03/02 08:44:20;;;;;;;98.35;62.53;;;7.00;99.90;;;;;;4937561;29;20078;-74
2023/03/02 08:46:48;;;;;;;98.97;64.15;;;7.00;99.90;;;;;;4937729;29;20028;-77
2023/03/02 08:49:15;;;;;;;101.40;67.32;;;7.00;99.90;;;;;;4937436;29;20039;-78
2023/03/02 08:51:41;;;;;;;125.63;82.20;;;7.10;99.90;;;;;;4937411;29;20477;-78
2023/03/02 08:54:06;;;;;;;111.10;74.78;;;7.10;99.90;;;;;;4937375;29;20020;-77
2023/03/02 08:56:35;;;;;;;116.68;77.07;;;7.20;99.90;;;;;;4937466;29;20036;-76
2023/03/02 08:59:04;;;;;;;116.13;81.43;;;7.20;99.90;;;;;;4937261;29;20062;-77
2023/03/02 09:01:35;;;;;;;114.15;81.03;;;7.40;99.90;;;;;;4937291;29;20031;-76
2023/03/02 09:04:02;;;;;;;105.00;73.47;;;7.50;99.90;;;;;;4937549;29;20359;-77
2023/03/02 09:06:30;;;;;;;98.55;68.43;;;7.70;99.90;;;;;;4937112;29;20122;-78
2023/03/02 09:08:56;;;;;;;92.38;63.03;;;7.80;99.90;;;;;;4937450;29;20412;-77
2023/03/02 09:11:22;;;;;;;97.88;68.47;;;7.80;99.90;;;;;;4937238;29;20063;-78
2023/03/02 09:13:48;;;;;;;99.50;68.60;;;7.80;99.90;;;;;;4937326;29;20040;-77
2023/03/02 09:16:15;;;;;;;71.20;49.90;;;7.90;99.90;;;;;;4936745;29;20363;-78
2023/03/02 09:18:41;;;;;;;43.38;30.58;;;8.00;99.90;;;;;;4937137;29;20040;-78
2023/03/02 09:21:07;;;;;;;47.60;31.42;;;7.80;99.90;;;;;;4937008;29;20034;-75
2023/03/02 09:23:35;;;;;;;40.03;25.65;;;8.00;99.90;;;;;;4936962;29;20032;-78
2023/03/02 09:26:01;;;;;;;39.00;25.95;;;8.00;99.90;;;;;;4919880;29;20534;-77
2023/03/02 09:28:27;;;;;;;36.15;22.52;;;7.90;99.90;;;;;;4936916;29;20103;-77
2023/03/02 09:30:57;;;;;;;41.80;23.45;;;7.70;99.90;;;;;;4919838;29;20067;-77
2023/03/02 09:33:23;;;;;;;36.53;24.60;;;7.80;99.90;;;;;;4936830;29;20063;-78
2023/03/02 09:35:49;;;;;;;33.35;21.42;;;7.90;99.90;;;;;;4936668;29;20036;-77
2023/03/02 09:38:17;;;;;;;33.03;21.38;;;7.90;99.90;;;;;;4936448;29;20068;-77
2023/03/02 09:41:03;;;;;;;31.50;21.48;;;7.90;99.90;;;;;;4936442;29;20429;-77
2023/03/02 09:43:52;;;;;;;33.30;20.20;;;7.90;99.90;;;;;;4923139;29;20051;-77
2023/03/02 09:46:43;;;;;;;32.97;23.02;;;8.00;99.90;;;;;;4936444;29;20087;-77
2023/03/02 09:49:28;;;;;;;37.35;23.60;;;8.10;99.90;;;;;;4859451;29;20048;-77
2023/03/02 09:52:15;;;;;;;44.03;29.42;;;8.30;99.90;;;;;;4859221;29;20105;-78
2023/03/02 09:54:41;;;;;;;31.60;22.70;;;8.30;99.90;;;;;;4843860;29;20443;-73
2023/03/02 09:57:33;;;;;;;30.40;21.00;;;8.30;99.90;;;;;;4859147;29;20064;-77
2023/03/02 10:00:11;;;;;;;32.33;19.85;;;8.20;99.90;;;;;;4859152;29;20046;-75
2023/03/02 10:03:08;;;;;;;25.52;17.25;;;8.30;99.90;;;;;;4859143;29;20036;-77
2023/03/02 10:05:43;;;;;;;26.40;17.88;;;8.40;99.90;;;;;;4786166;29;20122;-77
2023/03/02 10:08:15;;;;;;;28.00;17.73;;;8.20;99.90;;;;;;4786434;30;20051;-78
2023/03/02 10:10:57;;;;;;;26.88;16.08;;;8.10;99.90;;;;;;4786136;29;20190;-77
2023/03/02 10:13:25;;;;;;;26.25;14.98;;;8.20;99.90;;;;;;4786066;29;20121;-77
2023/03/02 10:15:56;;;;;;;26.77;16.90;;;8.50;99.90;;;;;;4786359;30;20107;-77
2023/03/02 10:18:32;;;;;;;29.92;18.70;;;8.70;99.90;;;;;;4786017;29;20043;-77
2023/03/02 10:21:06;;;;;;;26.45;15.35;;;8.80;99.90;;;;;;4786156;30;20070;-77
2023/03/02 10:23:31;;;;;;;29.13;20.00;;;8.90;99.90;;;;;;4786022;29;20557;-77
2023/03/02 10:26:24;;;;;;;25.40;15.80;;;8.90;99.90;;;;;;4810486;29;20121;-77
2023/03/02 10:28:59;;;;;;;29.80;18.63;;;8.90;99.90;;;;;;4859051;29;20611;-77
2023/03/02 10:31:33;;;;;;;29.30;15.88;;;9.00;99.90;;;;;;4858836;29;20127;-77
2023/03/02 10:33:59;;;;;;;26.80;16.85;;;9.00;99.90;;;;;;4858604;29;20037;-77
2023/03/02 10:36:35;;;;;;;26.83;17.95;;;9.00;99.90;;;;;;4858662;29;20041;-77
2023/03/02 10:39:05;;;;;;;25.67;17.02;;;9.10;99.90;;;;;;4858499;29;20184;-76
2023/03/02 10:41:39;;;;;;;33.42;18.95;;;9.20;99.90;;;;;;4866000;29;20077;-77
2023/03/02 10:44:14;;;;;;;21.35;13.68;;;9.40;99.90;;;;;;4932887;29;20040;-76
2023/03/02 10:46:45;;;;;;;21.35;13.43;;;9.00;99.90;;;;;;4935691;29;20046;-74
2023/03/02 10:49:28;;;;;;;20.10;12.45;;;9.10;99.90;;;;;;4935713;29;20040;-76
2023/03/02 10:51:55;;;;;;;22.35;13.35;;;9.10;99.90;;;;;;4938055;29;20039;-74
2023/03/02 10:54:21;;;;;;;22.15;13.50;;;9.10;99.90;;;;;;4939913;29;20434;-76
2023/03/02 10:56:53;;;;;;;22.25;13.20;;;9.10;99.90;;;;;;4939680;29;20028;-77
2023/03/02 10:59:25;;;;;;;20.92;12.60;;;9.10;99.90;;;;;;4939735;29;20039;-76
2023/03/02 11:01:59;;;;;;;20.45;12.27;;;9.10;99.90;;;;;;4939630;29;20492;-76
2023/03/02 11:04:25;;;;;;;24.40;15.35;;;9.10;99.90;;;;;;4939471;29;20489;-71
2023/03/02 11:06:52;;;;;;;22.52;14.05;;;9.00;99.90;;;;;;4939348;29;20044;-76
2023/03/02 11:09:18;;;;;;;20.73;11.57;;;9.00;99.90;;;;;;4939358;29;20031;-73
2023/03/02 11:11:53;;;;;;;22.75;12.63;;;8.90;99.90;;;;;;4939101;29;20035;-75
2023/03/02 11:14:18;;;;;;;23.52;13.05;;;8.90;99.90;;;;;;4938911;29;20074;-76
2023/03/02 11:16:44;;;;;;;22.50;13.75;;;9.00;99.90;;;;;;4939409;29;20448;-73
2023/03/02 11:19:15;;;;;;;20.55;10.90;;;9.10;99.90;;;;;;4939176;29;20067;-74
2023/03/02 11:21:50;;;;;;;17.88;10.68;;;9.00;99.90;;;;;;4939033;29;20030;-75
2023/03/02 11:24:32;;;;;;;18.98;10.85;;;9.00;99.90;;;;;;4939228;29;20036;-74
2023/03/02 11:27:13;;;;;;;22.88;12.68;;;8.80;99.90;;;;;;4928290;29;20418;-76
2023/03/02 11:29:48;;;;;;;16.70;10.27;;;8.90;99.90;;;;;;4938898;29;20047;-75
2023/03/02 11:32:21;;;;;;;19.55;12.27;;;8.80;99.90;;;;;;4939043;29;20026;-76
2023/03/02 11:35:01;;;;;;;19.80;11.10;;;8.90;99.90;;;;;;4938819;29;20064;-76
2023/03/02 11:37:41;;;;;;;18.20;10.63;;;9.00;99.90;;;;;;4938605;29;20111;-77
2023/03/02 11:40:29;;;;;;;19.38;11.50;;;9.00;99.90;;;;;;4939493;29;20425;-78
2023/03/02 11:42:58;;;;;;;21.95;13.35;;;8.80;99.90;;;;;;4938862;29;20028;-78
2023/03/02 11:45:57;;;;;;;17.08;10.23;;;8.70;99.90;;;;;;4938714;29;20470;-74
2023/03/02 11:48:35;;;;;;;34.15;18.55;;;8.90;99.90;;;;;;4930274;29;20035;-75
2023/03/02 11:51:12;;;;;;;21.90;13.15;;;9.00;99.90;;;;;;4938591;29;20067;-78
2023/03/02 11:53:45;;;;;;;26.52;13.18;;;9.00;99.90;;;;;;4938567;29;20043;-76
2023/03/02 11:56:12;;;;;;;35.17;18.52;;;8.90;99.90;;;;;;4938835;29;20445;-75
2023/03/02 11:58:38;;;;;;;39.33;20.88;;;9.00;99.90;;;;;;4938525;29;20064;-75
2023/03/02 12:01:11;;;;;;;36.97;22.20;;;9.00;99.90;;;;;;4938854;29;20381;-76
2023/03/02 12:03:40;;;;;;;33.17;19.23;;;9.10;99.90;;;;;;4938182;29;20051;-76
2023/03/02 12:06:21;;;;;;;19.63;10.27;;;9.10;99.90;;;;;;4938296;29;20047;-75
2023/03/02 12:08:49;;;;;;;23.98;15.60;;;9.10;99.90;;;;;;4937178;29;20032;-75
2023/03/02 12:11:17;;;;;;;16.15;10.27;;;9.20;99.90;;;;;;4938355;29;20039;-75
2023/03/02 12:13:45;;;;;;;20.48;12.02;;;9.20;99.90;;;;;;4938327;29;20043;-76
2023/03/02 12:16:32;;;;;;;16.85;9.13;;;9.20;99.90;;;;;;4938221;29;20050;-75
2023/03/02 12:18:58;;;;;;;12.75;7.57;;;9.10;99.90;;;;;;4938050;29;20076;-76
2023/03/02 12:21:25;;;;;;;15.32;8.90;;;9.20;99.90;;;;;;4938273;29;20051;-76
2023/03/02 12:23:51;;;;;;;16.15;8.20;;;9.30;99.90;;;;;;4938289;29;20475;-78
2023/03/02 12:26:20;;;;;;;14.50;8.35;;;9.40;99.90;;;;;;4937941;29;20034;-76
2023/03/02 12:28:58;;;;;;;12.77;7.82;;;9.50;99.90;;;;;;4937953;29;20155;-76
2023/03/02 12:31:24;;;;;;;16.77;8.52;;;9.60;99.90;;;;;;4938087;29;20024;-76
2023/03/02 12:33:51;;;;;;;15.38;7.88;;;9.70;99.90;;;;;;4938042;29;20175;-77
2023/03/02 12:36:34;;;;;;;13.88;7.82;;;9.80;99.90;;;;;;4937928;29;20028;-73
2023/03/02 12:39:00;;;;;;;15.02;8.05;;;10.00;99.90;;;;;;4937763;29;20186;-75
2023/03/02 12:41:53;;;;;;;17.88;10.07;;;10.00;99.90;;;;;;4937851;29;20063;-76
2023/03/02 12:44:26;;;;;;;;;;;10.00;99.90;;;;;;4920579;29;20051;-76
2023/03/02 12:46:52;;;;;;;11.40;6.57;;;9.80;99.90;;;;;;4937405;29;19942;-73